createdAt,value
2022-09-02T00:00:33.452Z,100901.88
2022-09-02T00:03:40.986Z,100908.40
2022-09-02T00:06:46.852Z,100904.63
2022-09-02T00:09:53.835Z,100904.64
2022-09-02T00:12:59.800Z,100907.37
2022-09-02T00:16:06.186Z,100905.47
2022-09-02T00:19:12.545Z,100910.30
2022-09-02T00:22:19.196Z,100914.90
2022-09-02T00:25:24.333Z,100917.48
2022-09-02T00:28:30.917Z,100916.28
2022-09-02T00:31:40.382Z,100925.72
2022-09-02T00:34:47.022Z,100919.88
2022-09-02T00:37:53.079Z,100923.77
2022-09-02T00:41:02.207Z,100923.27
2022-09-02T00:44:17.818Z,100929.60
2022-09-02T00:47:23.359Z,100929.60
2022-09-02T00:50:32.263Z,100924.45
2022-09-02T00:53:37.928Z,100931.81
2022-09-02T00:56:44.715Z,100944.83
2022-09-02T01:00:08.791Z,100947.73
2022-09-02T01:03:19.317Z,100944.66
2022-09-02T01:06:26.044Z,100944.64
2022-09-02T01:09:31.678Z,100946.85
2022-09-02T01:12:39.178Z,100953.17
2022-09-02T01:15:44.310Z,100954.88
2022-09-02T01:18:50.690Z,100954.34
2022-09-02T01:22:00.430Z,100960.33
2022-09-02T01:25:06.301Z,100962.00
2022-09-02T01:28:18.491Z,100966.28
2022-09-02T01:31:24.745Z,100962.30
2022-09-02T01:34:31.123Z,100962.96
2022-09-02T01:37:38.627Z,100971.52
2022-09-02T01:40:45.704Z,100979.06
2022-09-02T01:43:51.779Z,100979.52
2022-09-02T01:46:58.249Z,100984.83
2022-09-02T01:50:08.919Z,100985.82
2022-09-02T01:53:16.500Z,100988.19
2022-09-02T01:56:23.589Z,100990.58
2022-09-02T01:59:31.498Z,101000.12
2022-09-02T02:02:38.267Z,100998.90
2022-09-02T02:05:45.974Z,101000.88
2022-09-02T02:08:52.343Z,100994.69
2022-09-02T02:11:59.332Z,101006.13
2022-09-02T02:15:06.012Z,101004.09
2022-09-02T02:18:12.868Z,101003.72
2022-09-02T02:21:18.773Z,101007.81
2022-09-02T02:24:25.926Z,101009.61
2022-09-02T02:27:33.513Z,101017.75
2022-09-02T02:30:40.390Z,101024.08
2022-09-02T02:33:45.749Z,101022.49
2022-09-02T02:36:53.729Z,101026.10
2022-09-02T02:39:59.725Z,101026.59
2022-09-02T02:43:06.391Z,101031.58
2022-09-02T02:46:13.186Z,101029.49
2022-09-02T02:49:19.826Z,101041.07
2022-09-02T02:52:27.019Z,101042.51
2022-09-02T02:55:32.566Z,101043.63
2022-09-02T02:58:38.343Z,101045.32
2022-09-02T03:01:46.303Z,101055.58
2022-09-02T03:04:55.674Z,101057.10
2022-09-02T03:08:01.536Z,101054.78
2022-09-02T03:11:09.203Z,101060.50
2022-09-02T03:14:15.740Z,101061.49
2022-09-02T03:17:22.882Z,101064.16
2022-09-02T03:20:28.513Z,101069.62
2022-09-02T03:23:35.922Z,101067.45
2022-09-02T03:26:41.793Z,101077.21
2022-09-02T03:29:48.764Z,101075.16
2022-09-02T03:32:54.270Z,101086.09
2022-09-02T03:36:02.524Z,101088.71
2022-09-02T03:39:09.892Z,101091.69
2022-09-02T03:42:19.635Z,101098.63
2022-09-02T03:45:22.020Z,101098.31
2022-09-02T03:48:30.290Z,101095.77
2022-09-02T03:51:36.528Z,101102.50
2022-09-02T03:54:43.899Z,101111.11
2022-09-02T03:57:50.898Z,101114.13
2022-09-02T04:00:59.645Z,101118.47
2022-09-02T04:04:05.383Z,101120.58
2022-09-02T04:07:12.798Z,101118.73
2022-09-02T04:10:20.040Z,101116.42
2022-09-02T04:13:29.367Z,101125.76
2022-09-02T04:16:37.778Z,101123.31
2022-09-02T04:19:47.273Z,101123.73
2022-09-02T04:22:53.723Z,101126.05
2022-09-02T04:25:59.983Z,101130.55
2022-09-02T04:29:06.584Z,101133.91
2022-09-02T04:32:13.743Z,101137.08
2022-09-02T04:35:20.426Z,101141.26
2022-09-02T04:38:28.215Z,101136.70
2022-09-02T04:41:39.212Z,101145.02
2022-09-02T04:44:46.175Z,101150.75
2022-09-02T04:47:53.991Z,101148.75
2022-09-02T04:51:03.737Z,101157.52
2022-09-02T04:54:09.887Z,101156.39
2022-09-02T04:57:17.783Z,101155.71
2022-09-02T05:00:26.847Z,101156.81
2022-09-02T05:03:32.824Z,101156.13
2022-09-02T05:06:44.277Z,101168.53
2022-09-02T05:09:52.497Z,101174.03
2022-09-02T05:13:03.878Z,101166.67
2022-09-02T05:16:11.633Z,101165.83
2022-09-02T05:19:21.049Z,101176.98
2022-09-02T05:22:27.012Z,101172.02
2022-09-02T05:25:36.751Z,101177.20
2022-09-02T05:28:43.680Z,101178.05
2022-09-02T05:31:54.167Z,101181.64
2022-09-02T05:35:03.504Z,101183.02
2022-09-02T05:38:10.575Z,101190.00
2022-09-02T05:41:22.791Z,101184.12
2022-09-02T05:44:30.713Z,101179.44
2022-09-02T05:47:38.509Z,101193.83
2022-09-02T05:50:43.481Z,101192.06
2022-09-02T05:53:54.987Z,101191.34
2022-09-02T05:57:03.968Z,101192.34
2022-09-02T06:00:17.787Z,101195.20
2022-09-02T06:03:26.279Z,101202.55
2022-09-02T06:06:32.152Z,101200.75
2022-09-02T06:09:39.332Z,101195.14
2022-09-02T06:12:47.511Z,101203.67
2022-09-02T06:15:59.163Z,101198.78
2022-09-02T06:19:06.704Z,101203.67
2022-09-02T06:22:12.855Z,101208.55
2022-09-02T06:25:18.661Z,101215.00
2022-09-02T06:28:24.831Z,101220.81
2022-09-02T06:31:36.895Z,101216.76
2022-09-02T06:34:44.132Z,101223.90
2022-09-02T06:37:57.842Z,101230.20
2022-09-02T06:41:08.300Z,101236.29
2022-09-02T06:44:17.191Z,101240.64
2022-09-02T06:47:23.461Z,101238.11
2022-09-02T06:50:30.163Z,101234.35
2022-09-02T06:53:37.936Z,101240.97
2022-09-02T06:56:49.985Z,101241.19
2022-09-02T07:00:02.033Z,101235.59
2022-09-02T07:03:22.926Z,101232.72
2022-09-02T07:06:32.409Z,101234.54
2022-09-02T07:09:41.243Z,101233.16
2022-09-02T07:12:51.969Z,101233.56
2022-09-02T07:15:58.745Z,101240.87
2022-09-02T07:19:15.113Z,101239.25
2022-09-02T07:22:21.115Z,101238.98
2022-09-02T07:25:26.710Z,101237.15
2022-09-02T07:28:34.967Z,101243.08
2022-09-02T07:31:45.537Z,101234.17
2022-09-02T07:34:55.570Z,101229.26
2022-09-02T07:38:00.828Z,101229.44
2022-09-02T07:41:17.422Z,101220.13
2022-09-02T07:44:23.305Z,101224.50
2022-09-02T07:47:31.512Z,101226.28
2022-09-02T07:50:34.921Z,101222.39
2022-09-02T07:53:44.348Z,101216.25
2022-09-02T07:56:53.315Z,101214.11
2022-09-02T07:59:59.264Z,101213.59
2022-09-02T08:06:33.657Z,101222.46
2022-09-02T08:09:27.855Z,101211.08
2022-09-02T08:12:33.848Z,101216.56
2022-09-02T08:15:46.965Z,101212.25
2022-09-02T08:19:06.215Z,101208.65
2022-09-02T08:22:14.852Z,101203.25
2022-09-02T08:25:22.489Z,101200.20
2022-09-02T08:28:29.255Z,101193.63
2022-09-02T08:31:34.437Z,101209.39
2022-09-02T08:34:39.499Z,101199.48
2022-09-02T08:37:45.877Z,101207.69
2022-09-02T08:40:55.410Z,101200.66
2022-09-02T08:44:00.511Z,101206.76
2022-09-02T08:47:11.493Z,101204.12
2022-09-02T08:50:25.159Z,101199.12
2022-09-02T08:53:53.504Z,101195.19
2022-09-02T08:56:59.922Z,101197.47
2022-09-02T09:00:07.129Z,101208.03
2022-09-02T09:03:33.011Z,101206.87
2022-09-02T09:06:51.078Z,101196.01
2022-09-02T09:10:27.663Z,101192.73
2022-09-02T09:13:46.870Z,101202.11
2022-09-02T09:17:10.079Z,101203.42
2022-09-02T09:20:23.563Z,101194.67
2022-09-02T09:23:47.002Z,101199.15
2022-09-02T09:26:55.854Z,101190.83
2022-09-02T09:30:00.612Z,101193.65
2022-09-02T09:33:12.266Z,101190.23
2022-09-02T09:36:17.966Z,101192.24
2022-09-02T09:39:46.340Z,101191.94
2022-09-02T09:42:53.692Z,101178.78
2022-09-02T09:46:03.963Z,101184.12
2022-09-02T09:49:10.724Z,101188.38
2022-09-02T09:52:19.209Z,101181.20
2022-09-02T09:55:39.768Z,101170.71
2022-09-02T09:58:47.828Z,101175.39
2022-09-02T10:01:53.681Z,101176.77
2022-09-02T10:04:59.807Z,101177.21
2022-09-02T10:08:20.999Z,101190.09
2022-09-02T10:11:40.231Z,101192.34
2022-09-02T10:15:01.938Z,101184.25
2022-09-02T10:18:43.169Z,101179.33
2022-09-02T10:22:22.639Z,101190.31
2022-09-02T10:26:09.546Z,101184.41
2022-09-02T10:29:32.515Z,101193.56
2022-09-02T10:33:03.213Z,101201.60
2022-09-02T10:36:25.506Z,101195.70
2022-09-02T10:40:07.746Z,101189.39
2022-09-02T10:43:25.819Z,101184.86
2022-09-02T10:46:34.560Z,101191.50
2022-09-02T10:50:29.832Z,101189.77
2022-09-02T10:54:23.475Z,101187.55
2022-09-02T10:57:38.857Z,101184.27
2022-09-02T11:00:45.092Z,101186.84
2022-09-02T11:04:09.968Z,101192.56
2022-09-02T11:07:15.697Z,101191.08
2022-09-02T11:10:42.008Z,101185.24
2022-09-02T11:14:12.898Z,101187.02
2022-09-02T11:21:04.504Z,101178.43
2022-09-02T11:28:54.823Z,101185.80
2022-09-02T11:32:08.422Z,101183.77
2022-09-02T11:35:23.638Z,101190.15
2022-09-02T11:38:47.412Z,101183.94
2022-09-02T11:42:16.817Z,101177.89
2022-09-02T11:46:01.819Z,101177.45
2022-09-02T11:49:34.701Z,101178.30
2022-09-02T11:53:15.244Z,101178.21
2022-09-02T11:56:44.327Z,101175.27
2022-09-02T12:00:18.096Z,101173.02
2022-09-02T12:03:44.155Z,101163.77
2022-09-02T12:06:38.671Z,101163.88
2022-09-02T12:10:04.058Z,101160.95
2022-09-02T12:13:17.109Z,101154.97
2022-09-02T12:16:35.671Z,101163.64
2022-09-02T12:19:43.773Z,101153.45
2022-09-02T12:22:51.743Z,101166.80
2022-09-02T12:26:04.514Z,101160.25
2022-09-02T12:29:39.852Z,101155.58
2022-09-02T12:33:08.841Z,101158.78
2022-09-02T12:36:25.207Z,101154.40
2022-09-02T12:39:57.163Z,101172.68
2022-09-02T12:43:14.992Z,101159.23
2022-09-02T12:47:00.635Z,101157.05
2022-09-02T12:50:23.135Z,101152.11
2022-09-02T12:53:46.001Z,101154.19
2022-09-02T12:56:54.119Z,101144.33
2022-09-02T12:59:54.932Z,101151.63
2022-09-02T13:03:23.481Z,101151.53
2022-09-02T13:06:44.588Z,101157.91
2022-09-02T13:10:10.959Z,101153.45
2022-09-02T13:13:58.663Z,101152.52
2022-09-02T13:17:37.090Z,101153.30
2022-09-02T13:21:18.818Z,101141.75
2022-09-02T13:24:33.671Z,101146.01
2022-09-02T13:28:17.643Z,101144.44
2022-09-02T13:31:41.083Z,101140.58
2022-09-02T13:34:48.379Z,101140.70
2022-09-02T13:37:57.345Z,101145.41
2022-09-02T13:41:02.064Z,101139.95
2022-09-02T13:44:24.670Z,101137.86
2022-09-02T13:47:33.870Z,101136.08
2022-09-02T13:50:42.830Z,101134.39
2022-09-02T13:54:21.743Z,101138.39
2022-09-02T13:57:01.459Z,101144.59
2022-09-02T14:00:09.622Z,101151.56
2022-09-02T14:03:32.921Z,101142.57
2022-09-02T14:06:44.354Z,101149.88
2022-09-02T14:09:53.799Z,101146.15
2022-09-02T14:13:00.018Z,101150.45
2022-09-02T14:16:06.145Z,101145.06
2022-09-02T14:19:23.411Z,101137.00
2022-09-02T14:22:44.940Z,101135.15
2022-09-02T14:25:52.642Z,101133.30
2022-09-02T14:29:01.683Z,101137.17
2022-09-02T14:32:28.513Z,101143.61
2022-09-02T14:35:36.545Z,101145.99
2022-09-02T14:38:53.872Z,101143.36
2022-09-02T14:42:05.345Z,101148.13
2022-09-02T14:45:13.106Z,101146.02
2022-09-02T14:48:29.783Z,101137.03
2022-09-02T14:51:36.971Z,101147.08
2022-09-02T14:54:59.224Z,101136.09
2022-09-02T14:58:09.695Z,101138.81
2022-09-02T15:01:19.799Z,101136.14
2022-09-02T15:04:31.173Z,101139.08
2022-09-02T15:07:38.086Z,101146.05
2022-09-02T15:10:48.222Z,101141.72
2022-09-02T15:13:54.802Z,101135.97
2022-09-02T15:17:04.639Z,101144.06
2022-09-02T15:20:13.918Z,101137.75
2022-09-02T15:23:21.358Z,101138.95
2022-09-02T15:26:28.086Z,101137.08
2022-09-02T15:29:39.443Z,101141.18
2022-09-02T15:32:48.374Z,101139.52
2022-09-02T15:35:56.628Z,101138.28
2022-09-02T15:39:02.853Z,101145.57
2022-09-02T15:42:08.055Z,101143.05
2022-09-02T15:45:11.917Z,101134.12
2022-09-02T15:48:18.069Z,101137.37
2022-09-02T15:51:28.413Z,101137.06
2022-09-02T15:54:38.051Z,101142.67
2022-09-02T15:57:43.239Z,101135.59
2022-09-02T16:00:49.395Z,101131.80
2022-09-02T16:03:55.223Z,101142.50
2022-09-02T16:07:03.065Z,101140.39
2022-09-02T16:10:08.963Z,101143.84
2022-09-02T16:13:16.030Z,101136.38
2022-09-02T16:16:25.086Z,101141.63
2022-09-02T16:19:30.625Z,101149.71
2022-09-02T16:22:37.347Z,101151.30
2022-09-02T16:25:42.973Z,101154.61
2022-09-02T16:28:52.870Z,101164.08
2022-09-02T16:32:23.773Z,101160.75
2022-09-02T16:35:09.165Z,101163.48
2022-09-02T16:38:15.637Z,101160.34
2022-09-02T16:41:41.777Z,101161.12
2022-09-02T16:44:51.523Z,101165.56
2022-09-02T16:47:57.096Z,101171.90
2022-09-02T16:51:04.347Z,101188.76
2022-09-02T16:54:17.765Z,101194.34
2022-09-02T16:57:22.656Z,101203.42
2022-09-02T17:00:30.687Z,101199.48
2022-09-02T17:03:37.804Z,101206.76
2022-09-02T17:06:46.663Z,101203.98
2022-09-02T17:09:52.131Z,101207.97
2022-09-02T17:12:59.608Z,101212.77
2022-09-02T17:16:06.184Z,101221.72
2022-09-02T17:19:14.029Z,101216.32
2022-09-02T17:22:19.948Z,101222.33
2022-09-02T17:25:24.967Z,101229.17
2022-09-02T17:28:30.818Z,101232.27
2022-09-02T17:31:46.833Z,101232.38
2022-09-02T17:34:52.233Z,101232.65
2022-09-02T17:37:59.851Z,101241.18
2022-09-02T17:41:24.683Z,101235.77
2022-09-02T17:44:30.098Z,101236.38
2022-09-02T17:47:37.968Z,101238.03
2022-09-02T17:50:44.512Z,101245.08
2022-09-02T17:53:50.054Z,101241.73
2022-09-02T17:57:25.334Z,101233.42
2022-09-02T18:00:35.166Z,101236.79
2022-09-02T18:03:51.683Z,101232.33
2022-09-02T18:06:57.941Z,101232.33
2022-09-02T18:10:04.508Z,101230.59
2022-09-02T18:13:10.605Z,101227.70
2022-09-02T18:16:39.160Z,101232.06
2022-09-02T18:19:59.608Z,101235.72
2022-09-02T18:23:46.909Z,101232.50
2022-09-02T18:27:26.572Z,101235.30
2022-09-02T18:30:56.915Z,101226.95
2022-09-02T18:34:30.536Z,101233.05
2022-09-02T18:38:08.737Z,101237.02
2022-09-02T18:41:40.016Z,101233.45
2022-09-02T18:44:54.952Z,101246.63
2022-09-02T18:48:09.218Z,101245.00
2022-09-02T18:51:42.459Z,101251.91
2022-09-02T18:55:00.083Z,101252.30
2022-09-02T18:58:13.267Z,101255.64
2022-09-02T19:01:46.111Z,101250.70
2022-09-02T19:04:56.118Z,101257.83
2022-09-02T19:08:20.390Z,101260.83
2022-09-02T19:11:30.246Z,101253.25
2022-09-02T19:14:43.086Z,101261.70
2022-09-02T19:17:50.981Z,101255.68
2022-09-02T19:20:59.983Z,101257.89
2022-09-02T19:24:07.204Z,101255.68
2022-09-02T19:27:24.108Z,101261.52
2022-09-02T19:30:32.079Z,101267.22
2022-09-02T19:33:37.967Z,101264.28
2022-09-02T19:36:46.367Z,101279.77
2022-09-02T19:39:54.438Z,101276.36
2022-09-02T19:43:00.334Z,101276.37
2022-09-02T19:46:08.289Z,101272.23
2022-09-02T19:49:14.814Z,101279.48
2022-09-02T19:52:21.091Z,101284.63
2022-09-02T19:55:31.262Z,101289.14
2022-09-02T19:58:37.311Z,101292.27
2022-09-02T20:01:44.930Z,101288.17
2022-09-02T20:04:50.663Z,101289.88
2022-09-02T20:07:58.345Z,101290.97
2022-09-02T20:11:17.432Z,101290.98
2022-09-02T20:17:31.175Z,101292.07
2022-09-02T20:20:39.091Z,101287.31
2022-09-02T20:23:45.655Z,101290.10
2022-09-02T20:27:22.434Z,101299.78
2022-09-02T20:30:33.325Z,101295.64
2022-09-02T20:33:39.307Z,101287.73
2022-09-02T20:37:00.224Z,101294.44
2022-09-02T20:40:34.648Z,101289.64
2022-09-02T20:43:58.229Z,101288.44
2022-09-02T20:47:39.079Z,101289.64
2022-09-02T20:51:05.565Z,101285.18
2022-09-02T20:54:27.739Z,101288.80
2022-09-02T20:58:06.861Z,101292.06
2022-09-02T21:01:23.786Z,101290.00
2022-09-02T21:04:48.041Z,101287.93
2022-09-02T21:08:00.884Z,101285.70
2022-09-02T21:11:13.917Z,101290.52
2022-09-02T21:14:41.079Z,101293.99
2022-09-02T21:18:06.901Z,101289.17
2022-09-02T21:21:51.864Z,101295.73
2022-09-02T21:25:04.587Z,101294.52
2022-09-02T21:28:30.181Z,101290.59
2022-09-02T21:31:52.301Z,101291.95
2022-09-02T21:35:11.311Z,101300.23
2022-09-02T21:38:29.355Z,101292.83
2022-09-02T21:41:55.673Z,101291.98
2022-09-02T21:45:22.840Z,101280.61
2022-09-02T21:48:54.723Z,101285.63
2022-09-02T21:52:25.765Z,101294.22
2022-09-02T21:55:39.604Z,101293.02
2022-09-02T21:58:53.857Z,101295.44
2022-09-02T22:02:47.633Z,101293.37
2022-09-02T22:06:22.574Z,101292.15
2022-09-02T22:09:37.131Z,101302.63
2022-09-02T22:12:51.913Z,101309.51
2022-09-02T22:16:10.815Z,101306.42
2022-09-02T22:19:22.824Z,101308.32
2022-09-02T22:22:33.630Z,101306.41
2022-09-02T22:25:42.767Z,101308.30
2022-09-02T22:28:56.295Z,101309.88
2022-09-02T22:32:03.853Z,101310.88
2022-09-02T22:35:43.537Z,101311.59
2022-09-02T22:38:54.515Z,101308.14
2022-09-02T22:42:15.537Z,101302.98
2022-09-02T22:46:02.404Z,101306.62
2022-09-02T22:49:34.317Z,101306.43
2022-09-02T22:53:00.149Z,101304.20
2022-09-02T22:56:16.329Z,101309.35
2022-09-02T22:59:37.008Z,101298.34
2022-09-02T23:03:04.345Z,101301.63
2022-09-02T23:06:43.245Z,101302.98
2022-09-02T23:09:50.525Z,101299.74
2022-09-02T23:13:02.336Z,101298.17
2022-09-02T23:16:21.742Z,101293.70
2022-09-02T23:19:55.301Z,101296.62
2022-09-02T23:23:40.058Z,101295.59
2022-09-02T23:27:00.070Z,101290.95
2022-09-02T23:30:05.839Z,101285.81
2022-09-02T23:33:31.929Z,101295.08
2022-09-02T23:36:48.642Z,101300.41
2022-09-02T23:40:05.257Z,101300.59
2022-09-02T23:43:11.717Z,101299.20
2022-09-02T23:46:30.457Z,101290.09
2022-09-02T23:50:12.589Z,101301.28
2022-09-02T23:53:24.791Z,101298.70
2022-09-02T23:57:07.717Z,101305.75
